Penetanguishene, Canada
Current Conditions -  °F | °C
As of 12:00 PM on Friday 31 Oct 2014 (Local Time) from CYQA Reporting Station
Light Rain Light Rain  
Wind Chill: 30°   Ceiling: 700
Heat Index: 36°   Visibility: 9mi
Dew Point: 36°   Wind: 7mph
Humidity: 100%   Direction: 110°ESE
Pressure: 29.95"   Gusts: NA
Location:  44.77°N, 79.93°W
Report Text: CYQA 311600Z AUTO 11006KT 070V140 9SM -RA BKN007 OVC013 02/02 A2995 RMK PCPN 0.8MM PAST HR SLP153
Loading
Personal Weather Stations






























Interactive Weather Map
Tropical Storm Tracking
New forecast layout! Learn more

10-Day Weather Forecast

Advertisements
Track Severe Weather on mobile